createdAt,value
2023-04-05T00:00:26.931Z,0
2023-04-05T00:01:26.945Z,0
2023-04-05T00:02:26.966Z,0
2023-04-05T00:03:27.060Z,0
2023-04-05T00:04:27.223Z,0
2023-04-05T00:05:26.941Z,0
2023-04-05T00:06:26.955Z,0
2023-04-05T00:07:26.951Z,0
2023-04-05T00:08:26.980Z,0
2023-04-05T00:09:26.952Z,0
2023-04-05T00:10:26.956Z,0
2023-04-05T00:11:26.952Z,0
2023-04-05T00:12:26.945Z,0
2023-04-05T00:13:26.950Z,0
2023-04-05T00:14:26.944Z,0
2023-04-05T00:15:26.959Z,0
2023-04-05T00:16:26.971Z,0
2023-04-05T00:17:26.946Z,0
2023-04-05T00:18:26.942Z,0
2023-04-05T00:19:26.956Z,0
2023-04-05T00:20:26.952Z,0
2023-04-05T00:21:26.962Z,0
2023-04-05T00:22:26.959Z,0
2023-04-05T00:23:26.948Z,0
2023-04-05T00:24:26.931Z,0
2023-04-05T00:25:26.967Z,0
2023-04-05T00:26:26.947Z,0
2023-04-05T00:27:26.947Z,0
2023-04-05T00:28:26.949Z,0
2023-04-05T00:29:26.943Z,0
2023-04-05T00:30:26.971Z,0
2023-04-05T00:31:26.989Z,0
2023-04-05T00:32:26.950Z,0
2023-04-05T00:33:26.952Z,0
2023-04-05T00:34:26.941Z,0
2023-04-05T00:35:26.973Z,0
2023-04-05T00:36:26.992Z,0
2023-04-05T00:37:26.943Z,0
2023-04-05T00:38:26.947Z,0
2023-04-05T00:39:26.945Z,0
2023-04-05T00:40:26.966Z,0
2023-04-05T00:41:26.933Z,0
2023-04-05T00:42:26.957Z,0
2023-04-05T00:43:26.946Z,0
2023-04-05T00:44:26.949Z,0
2023-04-05T00:45:26.954Z,0
2023-04-05T00:46:27.017Z,0
2023-04-05T00:47:26.955Z,0
2023-04-05T00:48:26.953Z,0
2023-04-05T00:49:26.943Z,0
2023-04-05T00:50:26.957Z,0
2023-04-05T00:51:26.961Z,0
2023-04-05T00:52:26.942Z,0
2023-04-05T00:53:26.947Z,0
2023-04-05T00:54:26.945Z,0
2023-04-05T00:55:26.962Z,0
2023-04-05T00:56:26.950Z,0
2023-04-05T00:57:26.949Z,0
2023-04-05T00:58:26.958Z,0
2023-04-05T00:59:26.974Z,0
2023-04-05T01:00:26.971Z,0
2023-04-05T01:01:26.969Z,0
2023-04-05T01:02:26.948Z,0
2023-04-05T01:03:26.949Z,0
2023-04-05T01:04:26.967Z,0
2023-04-05T01:05:27.116Z,0
2023-04-05T01:06:26.960Z,0
2023-04-05T01:07:26.940Z,0
2023-04-05T01:08:26.942Z,0
2023-04-05T01:09:26.944Z,0
2023-04-05T01:10:26.943Z,0
2023-04-05T01:11:27.012Z,0
2023-04-05T01:12:26.936Z,0
2023-04-05T01:13:26.996Z,0
2023-04-05T01:14:26.943Z,0
2023-04-05T01:15:26.974Z,0
2023-04-05T01:16:26.948Z,0
2023-04-05T01:17:26.962Z,0
2023-04-05T01:18:26.940Z,0
2023-04-05T01:19:26.934Z,0
2023-04-05T01:20:26.939Z,0
2023-04-05T01:21:26.961Z,0
2023-04-05T01:22:26.958Z,0
2023-04-05T01:23:26.937Z,0
2023-04-05T01:24:26.942Z,0
2023-04-05T01:25:26.934Z,0
2023-04-05T01:26:26.944Z,0
2023-04-05T01:27:26.923Z,0
2023-04-05T01:28:26.939Z,0
2023-04-05T01:29:26.941Z,0
2023-04-05T01:30:26.927Z,0
2023-04-05T01:31:26.990Z,0
2023-04-05T01:32:26.994Z,0
2023-04-05T01:33:26.944Z,0
2023-04-05T01:34:26.940Z,0
2023-04-05T01:35:26.945Z,0
2023-04-05T01:36:26.950Z,0
2023-04-05T01:37:26.941Z,0
2023-04-05T01:38:26.959Z,0
2023-04-05T01:39:26.940Z,0
2023-04-05T01:40:26.931Z,0
2023-04-05T01:41:26.956Z,0
2023-04-05T01:42:26.946Z,0
2023-04-05T01:43:26.946Z,0
2023-04-05T01:44:26.943Z,0
2023-04-05T01:45:26.942Z,0
2023-04-05T01:46:26.991Z,0
2023-04-05T01:47:26.973Z,0
2023-04-05T01:48:26.947Z,0
2023-04-05T01:49:26.961Z,0
2023-04-05T01:50:26.934Z,0
2023-04-05T01:51:26.951Z,0
2023-04-05T01:52:26.947Z,0
2023-04-05T01:53:26.935Z,0
2023-04-05T01:54:26.940Z,0
2023-04-05T01:55:26.931Z,0
2023-04-05T01:56:26.950Z,0
2023-04-05T01:57:26.944Z,0
2023-04-05T01:58:26.940Z,0
2023-04-05T01:59:26.985Z,0
2023-04-05T02:00:26.931Z,0
2023-04-05T02:01:27.142Z,0
2023-04-05T02:02:26.999Z,0
2023-04-05T02:03:27.050Z,0
2023-04-05T02:04:26.939Z,0
2023-04-05T02:05:26.941Z,0
2023-04-05T02:06:27.112Z,0
2023-04-05T02:07:26.947Z,0
2023-04-05T02:08:26.951Z,0
2023-04-05T02:09:26.946Z,0
2023-04-05T02:10:26.948Z,0
2023-04-05T02:11:26.983Z,0
2023-04-05T02:12:26.955Z,0
2023-04-05T02:13:26.940Z,0
2023-04-05T02:14:26.951Z,0
2023-04-05T02:15:26.945Z,0
2023-04-05T02:16:27.010Z,0
2023-04-05T02:17:26.957Z,0
2023-04-05T02:18:26.939Z,0
2023-04-05T02:19:26.936Z,0
2023-04-05T02:20:26.955Z,0
2023-04-05T02:21:26.953Z,0
2023-04-05T02:22:26.956Z,0
2023-04-05T02:23:26.948Z,0
2023-04-05T02:24:26.954Z,0
2023-04-05T02:25:26.936Z,0
2023-04-05T02:26:26.947Z,0
2023-04-05T02:27:26.947Z,0
2023-04-05T02:28:26.943Z,0
2023-04-05T02:29:26.955Z,0
2023-04-05T02:30:26.932Z,0
2023-04-05T02:31:26.986Z,0
2023-04-05T02:32:26.976Z,0
2023-04-05T02:33:26.954Z,0
2023-04-05T02:34:26.947Z,0
2023-04-05T02:35:26.981Z,0
2023-04-05T02:36:26.943Z,0
2023-04-05T02:37:26.967Z,0
2023-04-05T02:38:26.937Z,0
2023-04-05T02:39:26.934Z,0
2023-04-05T02:40:26.944Z,0
2023-04-05T02:41:26.934Z,0
2023-04-05T02:42:26.953Z,0
2023-04-05T02:43:26.944Z,0
2023-04-05T02:44:26.950Z,0
2023-04-05T02:45:26.948Z,0
2023-04-05T02:46:27.007Z,0
2023-04-05T02:47:27.011Z,0
2023-04-05T02:48:26.935Z,0
2023-04-05T02:49:26.946Z,0
2023-04-05T02:50:26.943Z,0
2023-04-05T02:51:26.961Z,0
2023-04-05T02:52:26.955Z,0
2023-04-05T02:53:26.951Z,0
2023-04-05T02:54:26.955Z,0
2023-04-05T02:55:26.944Z,0
2023-04-05T02:56:26.935Z,0
2023-04-05T02:57:26.959Z,0
2023-04-05T02:58:26.934Z,0
2023-04-05T02:59:26.970Z,0
2023-04-05T03:00:26.943Z,0
2023-04-05T03:01:27.014Z,0
2023-04-05T03:02:26.993Z,0
2023-04-05T03:03:26.947Z,0
2023-04-05T03:04:27.001Z,0
2023-04-05T03:05:26.971Z,0
2023-04-05T03:06:26.946Z,0
2023-04-05T03:07:26.955Z,0
2023-04-05T03:08:26.946Z,0
2023-04-05T03:09:26.941Z,0
2023-04-05T03:10:26.941Z,0
2023-04-05T03:11:26.937Z,0
2023-04-05T03:12:26.962Z,0
2023-04-05T03:13:26.950Z,0
2023-04-05T03:14:26.943Z,0
2023-04-05T03:15:26.940Z,0
2023-04-05T03:16:26.970Z,0
2023-04-05T03:17:26.983Z,0
2023-04-05T03:18:26.942Z,0
2023-04-05T03:19:26.941Z,0
2023-04-05T03:20:26.950Z,0
2023-04-05T03:21:26.992Z,0
2023-04-05T03:22:26.957Z,0
2023-04-05T03:23:26.946Z,0
2023-04-05T03:24:26.939Z,0
2023-04-05T03:25:26.962Z,0
2023-04-05T03:26:26.930Z,0
2023-04-05T03:27:26.947Z,0
2023-04-05T03:28:26.947Z,0
2023-04-05T03:29:26.952Z,0
2023-04-05T03:30:26.933Z,0
2023-04-05T03:31:26.983Z,0
2023-04-05T03:32:26.997Z,0
2023-04-05T03:33:26.949Z,0
2023-04-05T03:34:26.956Z,0
2023-04-05T03:35:26.958Z,0
2023-04-05T03:36:26.947Z,0
2023-04-05T03:37:26.950Z,0
2023-04-05T03:38:26.936Z,0
2023-04-05T03:39:26.938Z,0
2023-04-05T03:40:26.939Z,0
2023-04-05T03:41:26.947Z,0
2023-04-05T03:42:26.951Z,0
2023-04-05T03:43:26.952Z,0
2023-04-05T03:44:26.948Z,0
2023-04-05T03:45:26.949Z,0
2023-04-05T03:46:27.012Z,0
2023-04-05T03:47:26.989Z,0
2023-04-05T03:48:26.944Z,0
2023-04-05T03:49:26.948Z,0
2023-04-05T03:50:26.969Z,0
2023-04-05T03:51:26.937Z,0
2023-04-05T03:52:26.957Z,0
2023-04-05T03:53:26.945Z,0
2023-04-05T03:54:26.944Z,0
2023-04-05T03:55:26.933Z,0
2023-04-05T03:56:26.945Z,0
2023-04-05T03:57:26.958Z,0
2023-04-05T03:58:26.934Z,0
2023-04-05T03:59:27.012Z,0
2023-04-05T04:00:26.945Z,0
2023-04-05T04:01:26.940Z,0
2023-04-05T04:02:27.103Z,0
2023-04-05T04:03:26.939Z,0
2023-04-05T04:04:26.948Z,0
2023-04-05T04:05:26.992Z,0
2023-04-05T04:06:27.008Z,0
2023-04-05T04:07:26.956Z,0
2023-04-05T04:08:26.940Z,0
2023-04-05T04:09:26.941Z,0
2023-04-05T04:10:26.930Z,0
2023-04-05T04:11:26.945Z,0
2023-04-05T04:12:26.964Z,0
2023-04-05T04:13:26.947Z,0
2023-04-05T04:14:26.939Z,0
2023-04-05T04:15:26.945Z,0
2023-04-05T04:16:28.729Z,0
2023-04-05T04:17:27.002Z,0
2023-04-05T04:18:26.932Z,0
2023-04-05T04:19:26.958Z,0.01
2023-04-05T04:20:26.921Z,0.01
2023-04-05T04:21:26.925Z,0.01
2023-04-05T04:22:26.958Z,0.01
2023-04-05T04:23:26.943Z,0.01
2023-04-05T04:24:26.937Z,0.02
2023-04-05T04:25:26.930Z,0.02
2023-04-05T04:26:26.948Z,0.02
2023-04-05T04:27:26.947Z,0.02
2023-04-05T04:28:26.935Z,0.03
2023-04-05T04:29:26.940Z,0.03
2023-04-05T04:30:26.960Z,0.04
2023-04-05T04:31:26.981Z,0.04
2023-04-05T04:32:27.099Z,0.04
2023-04-05T04:33:26.943Z,0.05
2023-04-05T04:34:26.943Z,0.05
2023-04-05T04:35:26.984Z,0.06
2023-04-05T04:36:26.942Z,0.07
2023-04-05T04:37:26.962Z,0.07
2023-04-05T04:38:26.949Z,0.08
2023-04-05T04:39:26.942Z,0.08
2023-04-05T04:40:26.928Z,0.09
2023-04-05T04:41:26.944Z,0.1
2023-04-05T04:42:26.958Z,0.1
2023-04-05T04:43:26.934Z,0.11
2023-04-05T04:44:26.936Z,0.11
2023-04-05T04:45:26.946Z,0.12
2023-04-05T04:46:26.962Z,0.13
2023-04-05T04:47:26.994Z,0.13
2023-04-05T04:48:26.933Z,0.14
2023-04-05T04:49:26.942Z,0.15
2023-04-05T04:50:26.924Z,0.16
2023-04-05T04:51:26.934Z,0.17
2023-04-05T04:52:26.962Z,0.17
2023-04-05T04:53:26.944Z,0.18
2023-04-05T04:54:26.936Z,0.19
2023-04-05T04:55:26.941Z,0.2
2023-04-05T04:56:26.945Z,0.21
2023-04-05T04:57:26.953Z,0.22
2023-04-05T04:58:26.942Z,0.23
2023-04-05T04:59:26.975Z,0.23
2023-04-05T05:00:26.938Z,0.24
2023-04-05T05:01:26.981Z,0.25
2023-04-05T05:02:28.643Z,0.26
2023-04-05T05:03:26.943Z,0.26
2023-04-05T05:04:26.992Z,0.27
2023-04-05T05:05:26.948Z,0.28
2023-04-05T05:06:26.947Z,0.28
2023-04-05T05:07:26.961Z,0.29
2023-04-05T05:08:26.971Z,0.3
2023-04-05T05:09:26.946Z,0.3
2023-04-05T05:10:26.940Z,0.31
2023-04-05T05:11:26.951Z,0.31
2023-04-05T05:12:26.958Z,0.32
2023-04-05T05:13:26.956Z,0.33
2023-04-05T05:14:26.944Z,0.34
2023-04-05T05:15:26.944Z,0.34
2023-04-05T05:16:26.992Z,0.35
2023-04-05T05:17:27.003Z,0.36
2023-04-05T05:18:26.944Z,0.37
2023-04-05T05:19:26.934Z,0.38
2023-04-05T05:20:26.950Z,0.39
2023-04-05T05:21:26.948Z,0.39
2023-04-05T05:22:26.962Z,0.4
2023-04-05T05:23:26.946Z,0.41
2023-04-05T05:24:26.943Z,0.42
2023-04-05T05:25:27.517Z,0.43
2023-04-05T05:26:26.944Z,0.46
2023-04-05T05:27:26.954Z,0.47
2023-04-05T05:28:26.943Z,0.48
2023-04-05T05:29:26.942Z,0.48
2023-04-05T05:30:26.939Z,0.49
2023-04-05T05:31:27.005Z,0.51
2023-04-05T05:32:26.956Z,0.53
2023-04-05T05:33:26.949Z,0.56
2023-04-05T05:34:26.942Z,0.58
2023-04-05T05:35:26.952Z,0.6
2023-04-05T05:36:26.941Z,0.62
2023-04-05T05:37:26.960Z,0.64
2023-04-05T05:38:26.944Z,0.65
2023-04-05T05:39:26.941Z,0.66
2023-04-05T05:40:26.966Z,0.67
2023-04-05T05:41:26.933Z,0.69
2023-04-05T05:42:26.964Z,0.69
2023-04-05T05:43:26.944Z,0.69
2023-04-05T05:44:26.943Z,0.7
2023-04-05T05:45:26.941Z,0.69
2023-04-05T05:46:26.988Z,0.7
2023-04-05T05:47:26.962Z,0.72
2023-04-05T05:48:26.939Z,0.73
2023-04-05T05:49:26.950Z,0.74
2023-04-05T05:50:26.930Z,0.76
2023-04-05T05:51:26.945Z,0.78
2023-04-05T05:52:26.958Z,0.79
2023-04-05T05:53:26.940Z,0.81
2023-04-05T05:54:26.943Z,0.82
2023-04-05T05:55:26.931Z,0.82
2023-04-05T05:56:26.936Z,0.82
2023-04-05T05:57:26.956Z,0.84
2023-04-05T05:58:26.943Z,0.88
2023-04-05T05:59:26.972Z,0.89
2023-04-05T06:00:26.954Z,0.87
2023-04-05T06:01:26.944Z,0.87
2023-04-05T06:02:26.981Z,0.89
2023-04-05T06:03:27.047Z,0.92
2023-04-05T06:04:27.033Z,0.94
2023-04-05T06:05:26.934Z,0.97
2023-04-05T06:06:26.953Z,0.99
2023-04-05T06:07:27.168Z,1.01
2023-04-05T06:08:26.945Z,1.02
2023-04-05T06:09:26.947Z,1.07
2023-04-05T06:10:26.941Z,1.06
2023-04-05T06:11:26.956Z,1.06
2023-04-05T06:12:28.722Z,1.07
2023-04-05T06:13:26.936Z,1.11
2023-04-05T06:14:26.960Z,1.1
2023-04-05T06:15:26.947Z,1.14
2023-04-05T06:16:26.991Z,1.25
2023-04-05T06:17:26.988Z,1.22
2023-04-05T06:18:26.948Z,1.23
2023-04-05T06:19:26.953Z,1.24
2023-04-05T06:20:26.944Z,1.25
2023-04-05T06:21:26.941Z,1.26
2023-04-05T06:22:26.962Z,1.26
2023-04-05T06:23:26.952Z,1.28
2023-04-05T06:24:26.943Z,1.33
2023-04-05T06:25:26.958Z,1.69
2023-04-05T06:26:26.961Z,1.39
2023-04-05T06:27:26.956Z,1.35
2023-04-05T06:28:26.954Z,1.4
2023-04-05T06:29:26.954Z,1.4
2023-04-05T06:30:26.939Z,2.16
2023-04-05T06:31:26.962Z,1.75
2023-04-05T06:32:26.965Z,1.76
2023-04-05T06:33:26.969Z,1.56
2023-04-05T06:34:26.952Z,1.85
2023-04-05T06:35:26.942Z,1.91
2023-04-05T06:36:27.789Z,1.62
2023-04-05T06:37:26.959Z,1.68
2023-04-05T06:38:26.949Z,1.61
2023-04-05T06:39:26.927Z,1.88
2023-04-05T06:40:26.938Z,2.14
2023-04-05T06:41:26.945Z,1.85
2023-04-05T06:42:28.125Z,1.88
2023-04-05T06:43:26.967Z,1.84
2023-04-05T06:44:26.944Z,1.79
2023-04-05T06:45:26.943Z,2.14
2023-04-05T06:46:27.011Z,1.69
2023-04-05T06:47:26.954Z,1.72
2023-04-05T06:48:26.959Z,2
2023-04-05T06:49:26.938Z,1.93
2023-04-05T06:50:26.936Z,2.14
2023-04-05T06:51:26.938Z,3.6
2023-04-05T06:52:26.946Z,4.2
2023-04-05T06:53:26.955Z,4.89
2023-04-05T06:54:27.001Z,5.42
2023-04-05T06:55:26.943Z,4.99
2023-04-05T06:56:26.952Z,4.9
2023-04-05T06:57:26.947Z,4.7
2023-04-05T06:58:26.951Z,4.06
2023-04-05T06:59:26.954Z,4.6
2023-04-05T07:00:26.949Z,4.95
2023-04-05T07:01:26.944Z,5.17
2023-04-05T07:02:27.081Z,5.37
2023-04-05T07:03:26.954Z,4.79
2023-04-05T07:04:27.005Z,2.27
2023-04-05T07:05:26.939Z,2.17
2023-04-05T07:06:26.938Z,4.58
2023-04-05T07:07:26.951Z,5.06
2023-04-05T07:08:26.951Z,5.16
2023-04-05T07:09:26.944Z,5.66
2023-04-05T07:10:26.938Z,5.27
2023-04-05T07:11:26.942Z,5.27
2023-04-05T07:12:26.939Z,4.68
2023-04-05T07:13:26.960Z,4.88
2023-04-05T07:14:26.948Z,4.36
2023-04-05T07:15:26.930Z,4.31
2023-04-05T07:16:27.000Z,5.04
2023-04-05T07:17:27.000Z,4.92
2023-04-05T07:18:26.956Z,5.46
2023-04-05T07:19:26.941Z,5.38
2023-04-05T07:20:26.963Z,5.17
2023-04-05T07:21:26.948Z,5.54
2023-04-05T07:22:26.962Z,5.59
2023-04-05T07:23:26.942Z,4.68
2023-04-05T07:24:26.940Z,4.44
2023-04-05T07:25:26.937Z,4.7
2023-04-05T07:26:26.930Z,6.67
2023-04-05T07:27:26.941Z,4.64
2023-04-05T07:28:26.953Z,6.36
2023-04-05T07:29:26.937Z,6.48
2023-04-05T07:30:26.928Z,6.18
2023-04-05T07:31:26.971Z,6.59
2023-04-05T07:32:27.156Z,6.72
2023-04-05T07:33:26.949Z,5.16
2023-04-05T07:34:26.936Z,5.13
2023-04-05T07:35:26.943Z,3.63
2023-04-05T07:36:26.940Z,3.68
2023-04-05T07:37:26.957Z,5.63
2023-04-05T07:38:27.017Z,7.43
2023-04-05T07:39:26.945Z,3.01
2023-04-05T07:40:26.935Z,3.89
2023-04-05T07:41:26.940Z,6.44
2023-04-05T07:42:26.928Z,6.15
2023-04-05T07:43:26.980Z,6.06
2023-04-05T07:44:26.939Z,4.27
2023-04-05T07:45:26.943Z,5.87
2023-04-05T07:46:26.945Z,7.71
2023-04-05T07:47:26.993Z,6.29
2023-04-05T07:48:26.961Z,6.43
2023-04-05T07:49:26.941Z,8.02
2023-04-05T07:50:26.932Z,8.71
2023-04-05T07:51:26.941Z,7.15
2023-04-05T07:52:26.959Z,4.93
2023-04-05T07:53:26.944Z,3.97
2023-04-05T07:54:26.931Z,4.31
2023-04-05T07:55:26.926Z,6.61
2023-04-05T07:56:26.958Z,8.71
2023-04-05T07:57:26.937Z,8.08
2023-04-05T07:58:26.949Z,7.44
2023-04-05T07:59:27.010Z,7.49
2023-04-05T08:00:26.932Z,7.17
2023-04-05T08:01:26.939Z,6.85
2023-04-05T08:02:26.969Z,7.51
2023-04-05T08:03:27.040Z,8.11
2023-04-05T08:04:26.941Z,7.29
2023-04-05T08:05:26.965Z,6.86
2023-04-05T08:06:26.932Z,7.88
2023-04-05T08:07:26.947Z,8.84
2023-04-05T08:08:26.948Z,9.32
2023-04-05T08:09:26.941Z,9.3
2023-04-05T08:10:26.941Z,8.39
2023-04-05T08:11:26.959Z,8.39
2023-04-05T08:12:26.954Z,7.94
2023-04-05T08:13:26.950Z,8.04
2023-04-05T08:14:26.951Z,8.3
2023-04-05T08:15:26.940Z,8.77
2023-04-05T08:16:26.965Z,8.96
2023-04-05T08:17:26.986Z,6.93
2023-04-05T08:18:26.960Z,6.51
2023-04-05T08:19:26.943Z,7.09
2023-04-05T08:20:26.929Z,7.18
2023-04-05T08:21:26.940Z,7.63
2023-04-05T08:22:26.956Z,7.67
2023-04-05T08:23:26.948Z,7.97
2023-04-05T08:24:26.956Z,9.18
2023-04-05T08:25:26.939Z,7.36
2023-04-05T08:26:26.938Z,2.66
2023-04-05T08:27:26.942Z,2.67
2023-04-05T08:28:26.956Z,2.93
2023-04-05T08:29:26.947Z,6.48
2023-04-05T08:30:26.934Z,2.73
2023-04-05T08:31:26.958Z,2.59
2023-04-05T08:32:27.006Z,3
2023-04-05T08:33:26.946Z,6.85
2023-04-05T08:34:26.941Z,2.84
2023-04-05T08:35:27.005Z,2.26
2023-04-05T08:36:26.935Z,2.11
2023-04-05T08:37:26.950Z,2.01
2023-04-05T08:38:26.945Z,1.97
2023-04-05T08:39:27.008Z,1.94
2023-04-05T08:40:26.922Z,1.95
2023-04-05T08:41:26.943Z,1.95
2023-04-05T08:42:26.938Z,1.94
2023-04-05T08:43:26.955Z,1.97
2023-04-05T08:44:26.954Z,2.03
2023-04-05T08:45:26.940Z,2.26
2023-04-05T08:46:26.961Z,2.68
2023-04-05T08:47:26.969Z,4.28
2023-04-05T08:48:26.963Z,7.51
2023-04-05T08:49:26.934Z,8.12
2023-04-05T08:50:26.930Z,7.19
2023-04-05T08:51:26.961Z,4.28
2023-04-05T08:52:26.950Z,3.56
2023-04-05T08:53:26.955Z,3.56
2023-04-05T08:54:26.947Z,3.17
2023-04-05T08:55:26.936Z,3.08
2023-04-05T08:56:26.948Z,3.47
2023-04-05T08:57:26.950Z,6.65
2023-04-05T08:58:26.957Z,6.9
2023-04-05T08:59:27.005Z,6.18
2023-04-05T09:00:26.947Z,6.25
2023-04-05T09:01:26.974Z,5.8
2023-04-05T09:02:27.000Z,8.13
2023-04-05T09:03:27.091Z,9.69
2023-04-05T09:04:26.948Z,4.98
2023-04-05T09:05:26.952Z,3.46
2023-04-05T09:06:26.945Z,3.15
2023-04-05T09:07:26.962Z,2.89
2023-04-05T09:08:26.958Z,2.75
2023-04-05T09:09:26.951Z,2.73
2023-04-05T09:10:26.938Z,3.1
2023-04-05T09:11:26.964Z,3.1
2023-04-05T09:12:26.951Z,2.87
2023-04-05T09:13:26.953Z,3.21
2023-04-05T09:14:26.944Z,3.66
2023-04-05T09:15:26.959Z,3.21
2023-04-05T09:16:26.965Z,3.36
2023-04-05T09:17:26.949Z,3.69
2023-04-05T09:18:27.609Z,4.62
2023-04-05T09:19:26.944Z,6.09
2023-04-05T09:20:26.931Z,8.46
2023-04-05T09:21:26.947Z,7.91
2023-04-05T09:22:26.954Z,6.31
2023-04-05T09:23:26.950Z,5.63
2023-04-05T09:24:26.947Z,5.56
2023-04-05T09:25:26.948Z,5.26
2023-04-05T09:26:26.938Z,4.83
2023-04-05T09:27:26.952Z,4.53
2023-04-05T09:28:26.959Z,4.26
2023-04-05T09:29:26.945Z,3.67
2023-04-05T09:30:26.930Z,3.24
2023-04-05T09:31:26.954Z,2.86
2023-04-05T09:32:27.003Z,2.59
2023-04-05T09:33:27.064Z,2.46
2023-04-05T09:34:26.961Z,2.45
2023-04-05T09:35:26.947Z,2.49
2023-04-05T09:36:26.955Z,2.56
2023-04-05T09:37:26.965Z,2.66
2023-04-05T09:38:26.962Z,2.72
2023-04-05T09:39:26.947Z,2.8
2023-04-05T09:40:26.939Z,2.87
2023-04-05T09:41:26.963Z,2.96
2023-04-05T09:42:26.968Z,3.11
2023-04-05T09:43:26.961Z,2.81
2023-04-05T09:44:26.953Z,2.63
2023-04-05T09:45:26.939Z,2.5
2023-04-05T09:46:26.958Z,2.38
2023-04-05T09:47:26.944Z,2.27
2023-04-05T09:48:26.959Z,2.17
2023-04-05T09:49:26.965Z,2.04
2023-04-05T09:50:26.955Z,1.95
2023-04-05T09:51:26.952Z,1.87
2023-04-05T09:52:26.970Z,1.83
2023-04-05T09:53:26.963Z,1.82
2023-04-05T09:54:26.945Z,1.79
2023-04-05T09:55:26.943Z,1.75
2023-04-05T09:56:26.945Z,1.72
2023-04-05T09:57:26.952Z,1.69
2023-04-05T09:58:26.956Z,1.63
2023-04-05T09:59:26.964Z,1.55
2023-04-05T10:00:26.927Z,1.46
2023-04-05T10:01:26.991Z,1.39
2023-04-05T10:02:27.100Z,1.34
2023-04-05T10:03:27.001Z,1.29
2023-04-05T10:04:26.945Z,1.28
2023-04-05T10:05:26.968Z,1.31
2023-04-05T10:06:26.938Z,1.37
2023-04-05T10:07:26.957Z,1.43
2023-04-05T10:08:26.962Z,1.46
2023-04-05T10:09:26.960Z,1.51
2023-04-05T10:10:26.924Z,1.59
2023-04-05T10:11:26.942Z,1.59
2023-04-05T10:12:27.043Z,1.87
2023-04-05T10:13:26.954Z,1.95
2023-04-05T10:14:26.941Z,2.04
2023-04-05T10:15:26.953Z,2.13
2023-04-05T10:16:26.974Z,2.17
2023-04-05T10:17:26.982Z,2.16
2023-04-05T10:18:27.122Z,2.1
2023-04-05T10:19:26.951Z,2
2023-04-05T10:20:26.948Z,1.93
2023-04-05T10:21:26.953Z,1.9
2023-04-05T10:22:26.949Z,1.88
2023-04-05T10:23:26.947Z,1.87
2023-04-05T10:24:26.942Z,1.84
2023-04-05T10:25:26.936Z,1.79
2023-04-05T10:26:26.930Z,1.76
2023-04-05T10:27:26.940Z,1.75
2023-04-05T10:28:26.944Z,1.72
2023-04-05T10:29:26.951Z,1.69
2023-04-05T10:30:26.979Z,1.66
2023-04-05T10:31:36.905Z,1.65
2023-04-05T10:32:26.980Z,1.63
2023-04-05T10:33:26.994Z,1.64
2023-04-05T10:34:26.933Z,1.63
2023-04-05T10:35:26.987Z,1.64
2023-04-05T10:36:26.985Z,1.69
2023-04-05T10:37:26.990Z,1.71
2023-04-05T10:38:27.020Z,1.75
2023-04-05T10:39:26.951Z,1.8
2023-04-05T10:40:26.989Z,1.87
2023-04-05T10:41:26.947Z,1.95
2023-04-05T10:42:26.928Z,1.98
2023-04-05T10:43:27.038Z,2.01
2023-04-05T10:44:27.203Z,2.03
2023-04-05T10:45:26.962Z,2.05
2023-04-05T10:46:26.985Z,2.04
2023-04-05T10:47:26.985Z,2.01
2023-04-05T10:48:26.953Z,1.97
2023-04-05T10:49:26.934Z,1.92
2023-04-05T10:50:26.932Z,1.88
2023-04-05T10:51:27.067Z,1.88
2023-04-05T10:52:27.014Z,1.9
2023-04-05T10:53:26.984Z,1.9
2023-04-05T10:54:26.949Z,1.93
2023-04-05T10:55:26.953Z,1.96
2023-04-05T10:56:26.946Z,2.03
2023-04-05T10:57:26.947Z,2.11
2023-04-05T10:58:27.014Z,2.23
2023-04-05T10:59:26.969Z,2.44
2023-04-05T11:00:26.927Z,2.69
2023-04-05T11:01:26.992Z,3.01
2023-04-05T11:02:27.012Z,3.36
2023-04-05T11:03:27.043Z,3.55
2023-04-05T11:04:26.964Z,3.55
2023-04-05T11:05:26.941Z,3.52
2023-04-05T11:06:26.929Z,3.36
2023-04-05T11:07:26.951Z,3.32
2023-04-05T11:08:26.943Z,3.34
2023-04-05T11:09:26.933Z,3.35
2023-04-05T11:10:26.932Z,3.45
2023-04-05T11:11:26.935Z,3.45
2023-04-05T11:12:26.938Z,3.86
2023-04-05T11:13:26.946Z,4
2023-04-05T11:14:26.940Z,3.65
2023-04-05T11:15:26.941Z,3.27
2023-04-05T11:16:26.986Z,3.03
2023-04-05T11:17:27.014Z,2.82
2023-04-05T11:18:26.967Z,2.7
2023-04-05T11:19:26.946Z,2.6
2023-04-05T11:20:26.940Z,2.52
2023-04-05T11:21:26.941Z,2.42
2023-04-05T11:22:27.010Z,2.36
2023-04-05T11:23:26.949Z,2.34
2023-04-05T11:24:26.938Z,2.34
2023-04-05T11:25:26.941Z,2.4
2023-04-05T11:26:26.952Z,2.5
2023-04-05T11:27:26.945Z,2.61
2023-04-05T11:28:26.959Z,2.63
2023-04-05T11:29:26.945Z,2.49
2023-04-05T11:30:26.934Z,2.46
2023-04-05T11:31:27.055Z,2.46
2023-04-05T11:32:26.979Z,2.46
2023-04-05T11:33:26.948Z,2.62
2023-04-05T11:34:26.959Z,2.84
2023-04-05T11:35:26.939Z,2.62
2023-04-05T11:36:26.933Z,2.54
2023-04-05T11:37:26.954Z,2.35
2023-04-05T11:38:26.950Z,2.29
2023-04-05T11:39:26.947Z,2.37
2023-04-05T11:40:26.940Z,2.66
2023-04-05T11:41:26.949Z,2.67
2023-04-05T11:42:26.946Z,2.78
2023-04-05T11:43:26.959Z,2.8
2023-04-05T11:44:26.934Z,2.77
2023-04-05T11:45:26.951Z,2.76
2023-04-05T11:46:27.026Z,2.67
2023-04-05T11:47:26.976Z,2.55
2023-04-05T11:48:26.955Z,2.48
2023-04-05T11:49:26.951Z,2.52
2023-04-05T11:50:26.944Z,2.71
2023-04-05T11:51:26.942Z,3.04
2023-04-05T11:52:26.956Z,4.35
2023-04-05T11:53:26.953Z,5.22
2023-04-05T11:54:26.966Z,5.14
2023-04-05T11:55:26.946Z,5.15
2023-04-05T11:56:26.943Z,6.17
2023-04-05T11:57:26.947Z,5.2
2023-04-05T11:58:26.956Z,5.21
2023-04-05T11:59:26.976Z,5.04
2023-04-05T12:00:26.925Z,5.14
2023-04-05T12:01:26.935Z,5.07
2023-04-05T12:02:27.048Z,4.92
2023-04-05T12:03:27.028Z,4.79
2023-04-05T12:04:26.976Z,4.92
2023-04-05T12:05:26.949Z,5.19
2023-04-05T12:06:26.952Z,6.1
2023-04-05T12:07:26.957Z,5.49
2023-04-05T12:08:26.959Z,5.81
2023-04-05T12:09:26.941Z,6.16
2023-04-05T12:10:26.926Z,6.7
2023-04-05T12:11:26.942Z,6.7
2023-04-05T12:12:26.942Z,6.9
2023-04-05T12:13:27.986Z,7.43
2023-04-05T12:14:26.939Z,7.5
2023-04-05T12:15:26.934Z,7.21
2023-04-05T12:16:26.963Z,8.42
2023-04-05T12:17:26.959Z,8.25
2023-04-05T12:18:26.958Z,8.81
2023-04-05T12:19:26.946Z,10.42
2023-04-05T12:20:26.935Z,9.15
2023-04-05T12:21:26.949Z,9.25
2023-04-05T12:22:26.952Z,8.68
2023-04-05T12:23:26.950Z,9.08
2023-04-05T12:24:26.944Z,11.11
2023-04-05T12:25:26.941Z,9.49
2023-04-05T12:26:26.944Z,9.73
2023-04-05T12:27:26.932Z,10.47
2023-04-05T12:28:26.962Z,11.38
2023-04-05T12:29:26.942Z,9.64
2023-04-05T12:30:26.970Z,10.78
2023-04-05T12:31:26.973Z,12.19
2023-04-05T12:32:26.948Z,9.76
2023-04-05T12:33:26.958Z,11.18
2023-04-05T12:34:26.952Z,9.74
2023-04-05T12:35:26.955Z,8.68
2023-04-05T12:36:26.960Z,7.39
2023-04-05T12:37:26.953Z,6.11
2023-04-05T12:38:26.957Z,4.39
2023-04-05T12:39:26.981Z,4.16
2023-04-05T12:40:26.941Z,3.95
2023-04-05T12:41:26.952Z,3.48
2023-04-05T12:42:26.952Z,3.1
2023-04-05T12:43:26.961Z,2.82
2023-04-05T12:44:26.944Z,2.52
2023-04-05T12:45:26.962Z,2.23
2023-04-05T12:46:26.985Z,2
2023-04-05T12:47:26.956Z,1.82
2023-04-05T12:48:27.019Z,1.68
2023-04-05T12:49:26.947Z,1.56
2023-04-05T12:50:26.946Z,1.44
2023-04-05T12:51:26.945Z,1.34
2023-04-05T12:52:26.943Z,1.26
2023-04-05T12:53:26.979Z,1.2
2023-04-05T12:54:26.944Z,1.16
2023-04-05T12:55:26.941Z,1.13
2023-04-05T12:56:26.939Z,1.08
2023-04-05T12:57:26.939Z,1.02
2023-04-05T12:58:26.951Z,0.99
2023-04-05T12:59:26.940Z,0.97
2023-04-05T13:00:26.922Z,0.99
2023-04-05T13:01:26.961Z,1.02
2023-04-05T13:02:27.054Z,1.06
2023-04-05T13:03:27.108Z,1.1
2023-04-05T13:04:26.956Z,1.15
2023-04-05T13:05:26.930Z,1.17
2023-04-05T13:06:27.061Z,1.2
2023-04-05T13:07:26.953Z,1.24
2023-04-05T13:08:26.975Z,1.28
2023-04-05T13:09:26.947Z,1.29
2023-04-05T13:10:26.933Z,1.32
2023-04-05T13:11:26.944Z,1.32
2023-04-05T13:12:26.944Z,1.35
2023-04-05T13:13:26.956Z,1.34
2023-04-05T13:14:26.944Z,1.32
2023-04-05T13:15:26.950Z,1.31
2023-04-05T13:16:27.119Z,1.3
2023-04-05T13:17:26.978Z,1.29
2023-04-05T13:18:26.967Z,1.29
2023-04-05T13:19:26.950Z,1.29
2023-04-05T13:20:26.936Z,1.29
2023-04-05T13:21:26.940Z,1.27
2023-04-05T13:22:26.965Z,1.26
2023-04-05T13:23:26.972Z,1.26
2023-04-05T13:24:26.946Z,1.27
2023-04-05T13:25:26.935Z,1.3
2023-04-05T13:26:26.943Z,1.35
2023-04-05T13:27:26.959Z,1.45
2023-04-05T13:28:26.974Z,1.6
2023-04-05T13:29:26.948Z,1.97
2023-04-05T13:30:26.930Z,4.21
2023-04-05T13:31:26.972Z,7.33
2023-04-05T13:32:26.990Z,6.86
2023-04-05T13:33:26.958Z,7.07
2023-04-05T13:34:26.949Z,8.7
2023-04-05T13:35:32.409Z,9.23
2023-04-05T13:36:31.348Z,8.65
2023-04-05T13:37:31.363Z,7.37
2023-04-05T13:38:31.331Z,7.44
2023-04-05T13:39:31.328Z,7.11
2023-04-05T13:40:31.322Z,7.5
2023-04-05T13:41:31.320Z,8.31
2023-04-05T13:42:31.329Z,3.08
2023-04-05T13:43:31.538Z,2.55
2023-04-05T13:44:31.317Z,2.31
2023-04-05T13:45:31.320Z,2.14
2023-04-05T13:46:31.345Z,2.05